Time;durP1;ratioP1;P1;durP2;ratioP2;P2;SDS_P1;SDS_P2;PMS_P1;PMS_P2;Temp;Humidity;BMP_temperature;BMP_pressure;BME280_temperature;BME280_humidity;BME280_pressure;Samples;Min_cycle;Max_cycle;Signal;HPM_P1;HPM_P2
2021/04/17 00:00:18;;;;;;;;;17.75;17.75;;;;;7.00;79.66;101586.31;4898847;29;11672;-74
2021/04/17 00:03:13;;;;;;;;;19.50;19.50;;;;;7.04;79.56;101583.78;4898667;29;11672;-73
2021/04/17 00:06:09;;;;;;;;;21.50;21.50;;;;;7.15;79.00;101588.13;4880338;29;11705;-74
2021/04/17 00:08:36;;;;;;;;;23.00;23.00;;;;;7.07;79.15;101583.25;4881984;29;11687;-74
2021/04/17 00:11:32;;;;;;;;;16.50;16.50;;;;;6.96;79.74;101576.97;4881668;29;11955;-73
2021/04/17 00:14:31;;;;;;;;;18.25;18.25;;;;;7.00;80.10;101574.47;4881708;29;11698;-73
2021/04/17 00:17:28;;;;;;;;;18.25;18.25;;;;;6.90;80.06;101578.09;4881510;29;11728;-74
2021/04/17 00:20:24;;;;;;;;;18.75;18.75;;;;;7.11;79.48;101576.03;4881732;29;11746;-74
2021/04/17 00:23:09;;;;;;;;;20.00;19.00;;;;;7.09;79.73;101570.84;4881519;29;11783;-74
2021/04/17 00:26:05;;;;;;;;;18.00;15.00;;;;;7.00;79.97;101569.81;4881547;29;11704;-74
2021/04/17 00:29:09;;;;;;;;;19.50;19.50;;;;;6.92;80.20;101567.66;4881384;29;11771;-74
2021/04/17 00:32:06;;;;;;;;;21.50;19.25;;;;;7.07;79.93;101573.06;4881390;29;11679;-73
2021/04/17 00:34:37;;;;;;;;;21.00;21.00;;;;;7.07;80.03;101572.25;4881582;29;11697;-73
2021/04/17 00:37:32;;;;;;;;;26.75;26.50;;;;;7.06;79.48;101565.09;4881366;29;11691;-74
2021/04/17 00:40:28;;;;;;;;;18.25;18.25;;;;;7.03;79.76;101566.47;4882360;29;11693;-75
2021/04/17 00:43:23;;;;;;;;;18.25;18.25;;;;;7.13;79.71;101576.56;4899924;29;11674;-74
2021/04/17 00:46:20;;;;;;;;;19.25;19.25;;;;;7.17;80.17;101577.66;4899796;29;11682;-74
2021/04/17 00:49:15;;;;;;;;;16.25;16.25;;;;;7.14;79.99;101573.56;4899866;29;11738;-74
2021/04/17 00:52:12;;;;;;;;;14.00;14.00;;;;;7.18;80.16;101568.28;4898434;29;11656;-74
2021/04/17 00:55:09;;;;;;;;;17.50;17.50;;;;;7.19;80.15;101564.44;4898065;29;12402;-74
2021/04/17 00:57:38;;;;;;;;;20.50;19.50;;;;;7.28;80.41;101559.13;4899964;29;11692;-74
2021/04/17 01:00:36;;;;;;;;;16.75;16.75;;;;;7.23;80.19;101565.50;4891405;29;11815;-73
2021/04/17 01:03:41;;;;;;;;;19.50;19.00;;;;;7.41;79.72;101566.72;4880124;29;11685;-74
2021/04/17 01:06:43;;;;;;;;;19.50;19.50;;;;;7.34;79.83;101555.22;4890937;29;11683;-73
2021/04/17 01:09:51;;;;;;;;;19.00;19.00;;;;;7.39;79.56;101558.78;4880730;29;11697;-74
2021/04/17 01:12:51;;;;;;;;;19.50;19.50;;;;;7.39;80.06;101557.94;4881131;29;12478;-74
2021/04/17 01:15:48;;;;;;;;;18.50;18.50;;;;;7.41;79.72;101564.78;4880663;29;11790;-74
2021/04/17 01:18:45;;;;;;;;;15.00;15.00;;;;;7.47;79.56;101565.59;4880710;29;12541;-74
2021/04/17 01:21:42;;;;;;;;;21.00;20.75;;;;;7.48;80.08;101569.97;4880708;29;11691;-74
2021/04/17 01:24:40;;;;;;;;;20.75;19.75;;;;;7.38;80.15;101576.41;4880399;29;11825;-74
2021/04/17 01:27:37;;;;;;;;;24.00;23.50;;;;;7.46;80.53;101572.19;4880551;29;11762;-74
2021/04/17 01:30:32;;;;;;;;;22.50;19.00;;;;;7.55;79.49;101572.41;4880443;29;11673;-74
2021/04/17 01:33:32;;;;;;;;;21.50;21.50;;;;;7.56;80.04;101576.78;4897467;29;11666;-74
2021/04/17 01:36:30;;;;;;;;;20.00;19.00;;;;;7.54;80.02;101574.34;4899580;29;11795;-74
2021/04/17 01:39:28;;;;;;;;;20.75;19.00;;;;;7.48;80.41;101578.22;4899108;29;12405;-73
2021/04/17 01:42:23;;;;;;;;;20.50;20.50;;;;;7.38;81.24;101576.41;4883189;29;11700;-73
2021/04/17 01:44:50;;;;;;;;;21.25;20.00;;;;;7.58;80.62;101577.31;4880277;29;11687;-74
2021/04/17 01:47:49;;;;;;;;;23.75;23.75;;;;;7.71;79.99;101579.41;4879974;29;11762;-74
2021/04/17 01:50:47;;;;;;;;;20.25;20.25;;;;;7.62;80.31;101584.72;4879911;29;11808;-73
2021/04/17 01:53:45;;;;;;;;;24.00;23.00;;;;;7.62;80.49;101589.41;4891200;29;12448;-73
2021/04/17 01:56:43;;;;;;;;;21.50;21.50;;;;;7.67;80.41;101583.88;4898710;29;11667;-74
2021/04/17 01:59:40;;;;;;;;;22.75;21.50;;;;;7.55;81.29;101577.91;4886739;29;11746;-74
2021/04/17 02:02:35;;;;;;;;;21.25;21.25;;;;;7.75;80.19;101577.72;4893438;29;11681;-73
2021/04/17 02:05:31;;;;;;;;;22.50;21.75;;;;;7.74;80.74;101570.56;4896901;29;12420;-73
2021/04/17 02:08:26;;;;;;;;;19.75;19.75;;;;;7.73;81.16;101574.41;4898026;29;11659;-73
2021/04/17 02:11:22;;;;;;;;;24.00;21.50;;;;;7.78;81.00;101572.44;4885260;29;11696;-73
2021/04/17 02:14:18;;;;;;;;;19.75;19.75;;;;;7.86;80.51;101578.44;4891853;29;11689;-74
2021/04/17 02:17:17;;;;;;;;;18.75;18.75;;;;;7.86;80.70;101581.19;4897528;29;11688;-73
2021/04/17 02:20:39;;;;;;;;;20.75;20.75;;;;;7.88;80.88;101585.28;4898150;29;11693;-73
2021/04/17 02:23:36;;;;;;;;;20.25;19.25;;;;;7.93;80.26;101584.41;4897917;29;12452;-73
2021/04/17 02:26:32;;;;;;;;;24.75;21.00;;;;;7.98;80.34;101589.88;4898201;29;11674;-73
2021/04/17 02:29:14;;;;;;;;;18.75;16.00;;;;;7.94;80.88;101586.88;4898145;29;12461;-74
2021/04/17 02:32:14;;;;;;;;;20.00;20.00;;;;;7.95;80.56;101593.22;4897977;29;11784;-74
2021/04/17 02:35:10;;;;;;;;;18.75;17.00;;;;;7.93;80.79;101595.44;4896445;29;11671;-74
2021/04/17 02:38:06;;;;;;;;;20.25;20.25;;;;;7.96;80.77;101595.66;4880597;29;11708;-74
2021/04/17 02:41:02;;;;;;;;;12.00;12.00;;;;;8.05;79.92;101601.34;4879140;29;11808;-73
2021/04/17 02:43:57;;;;;;;;;20.50;19.50;;;;;8.08;80.82;101600.78;4878773;29;11708;-74
2021/04/17 02:46:53;;;;;;;;;20.75;20.75;;;;;7.99;80.59;101603.38;4878904;29;11720;-73
2021/04/17 02:49:48;;;;;;;;;20.50;20.00;;;;;7.94;80.79;101611.66;4879166;29;11702;-73
2021/04/17 02:52:45;;;;;;;;;21.00;21.00;;;;;7.78;81.80;101611.00;4878914;29;11688;-73
2021/04/17 02:55:40;;;;;;;;;24.50;24.00;;;;;7.93;81.66;101611.97;4892525;29;11794;-73
2021/04/17 02:58:08;;;;;;;;;20.75;20.75;;;;;7.93;81.37;101618.28;4904928;29;11689;-73
2021/04/17 03:01:04;;;;;;;;;19.50;19.50;;;;;7.95;82.02;101612.50;4903231;29;11735;-73
2021/04/17 03:03:59;;;;;;;;;15.50;15.50;;;;;8.07;81.50;101619.25;4905829;29;11633;-73
2021/04/17 03:06:55;;;;;;;;;22.50;22.50;;;;;7.97;81.92;101621.28;4903216;29;11644;-73
2021/04/17 03:09:50;;;;;;;;;18.00;18.00;;;;;7.80;82.80;101629.97;4913752;29;12582;-73
2021/04/17 03:12:46;;;;;;;;;16.25;16.25;;;;;7.97;82.07;101626.78;4877115;29;11691;-74
2021/04/17 03:15:41;;;;;;;;;20.00;20.00;;;;;7.93;82.31;101623.00;4878660;29;12521;-74
2021/04/17 03:18:23;;;;;;;;;19.25;18.50;;;;;8.08;81.71;101631.91;4878825;29;12470;-73
2021/04/17 03:21:18;;;;;;;;;15.75;15.75;;;;;8.09;81.84;101616.22;4878654;29;11694;-74
2021/04/17 03:24:14;;;;;;;;;19.50;19.50;;;;;8.22;81.10;101631.22;4878381;29;11698;-74
2021/04/17 03:27:10;;;;;;;;;16.75;16.75;;;;;8.00;81.61;101620.72;4876835;29;11639;-74
2021/04/17 03:30:07;;;;;;;;;16.50;16.50;;;;;7.96;82.33;101628.72;4878630;29;11652;-74
2021/04/17 03:33:03;;;;;;;;;18.00;18.00;;;;;8.02;81.68;101638.59;4878273;29;11615;-74
2021/04/17 03:35:59;;;;;;;;;22.25;22.25;;;;;8.05;81.69;101643.53;4879344;29;12415;-74
2021/04/17 03:38:55;;;;;;;;;17.75;17.75;;;;;8.13;81.99;101647.59;4876794;29;11717;-74
2021/04/17 03:41:50;;;;;;;;;20.50;20.50;;;;;8.00;82.84;101654.59;4878412;29;11866;-74
2021/04/17 03:44:18;;;;;;;;;19.75;19.75;;;;;8.05;82.80;101653.69;4878491;29;11690;-74
2021/04/17 03:47:13;;;;;;;;;20.00;20.00;;;;;8.10;82.36;101653.66;4878456;29;11775;-74
2021/04/17 03:50:10;;;;;;;;;24.00;24.00;;;;;8.24;81.95;101656.56;4878427;29;11757;-74
2021/04/17 03:53:05;;;;;;;;;19.00;19.00;;;;;8.24;82.27;101653.81;4878249;29;11728;-73
2021/04/17 03:56:01;;;;;;;;;17.00;17.00;;;;;8.04;82.87;101654.81;4878280;29;11684;-73
2021/04/17 03:58:43;;;;;;;;;20.75;20.00;;;;;8.07;82.73;101659.75;4878756;29;11693;-73
2021/04/17 04:01:38;;;;;;;;;19.00;18.50;;;;;8.35;81.37;101669.97;4878441;29;12499;-73
2021/04/17 04:04:34;;;;;;;;;13.00;13.00;;;;;8.24;82.06;101675.84;4878173;29;11824;-73
2021/04/17 04:07:29;;;;;;;;;13.75;12.75;;;;;8.45;81.33;101679.25;4878168;29;11599;-74
2021/04/17 04:09:57;;;;;;;;;18.25;18.25;;;;;8.39;81.82;101681.25;4909446;29;12357;-74
2021/04/17 04:12:53;;;;;;;;;18.50;17.00;;;;;8.37;82.07;101682.66;4899360;29;11611;-75
2021/04/17 04:15:43;;;;;;;;;21.00;20.50;;;;;8.34;82.25;101678.50;4894446;29;11693;-74
2021/04/17 04:18:38;;;;;;;;;21.25;21.25;;;;;8.47;82.17;101677.03;4893689;29;11584;-74
2021/04/17 04:21:34;;;;;;;;;20.00;20.00;;;;;8.63;81.83;101667.44;4896967;29;11764;-74
2021/04/17 04:24:30;;;;;;;;;20.00;20.00;;;;;8.69;81.55;101666.28;4878067;29;11669;-74
2021/04/17 04:27:26;;;;;;;;;21.25;21.25;;;;;8.77;81.25;101671.16;4878039;29;11693;-74
2021/04/17 04:29:54;;;;;;;;;21.50;21.00;;;;;8.88;80.90;101672.66;4878402;29;11616;-74
2021/04/17 04:32:36;;;;;;;;;21.00;21.00;;;;;8.96;80.43;101684.97;4877488;29;11632;-74
2021/04/17 04:35:32;;;;;;;;;22.25;22.25;;;;;9.09;80.33;101675.16;4877891;29;11714;-74
2021/04/17 04:38:28;;;;;;;;;21.00;21.00;;;;;9.18;79.65;101676.94;4876490;29;11633;-74
2021/04/17 04:41:23;;;;;;;;;22.50;22.50;;;;;9.12;79.99;101682.81;4881415;29;11627;-74
2021/04/17 04:44:19;;;;;;;;;25.75;25.75;;;;;9.11;80.09;101692.22;4891260;29;11697;-74
2021/04/17 04:47:14;;;;;;;;;25.25;24.00;;;;;9.01;80.70;101690.44;4891529;29;11641;-74
2021/04/17 04:50:11;;;;;;;;;27.50;26.25;;;;;9.27;81.16;101688.13;4881649;29;11715;-75
2021/04/17 04:53:07;;;;;;;;;28.50;28.50;;;;;9.55;84.52;101682.75;4884060;29;12323;-74
2021/04/17 04:55:34;;;;;;;;;29.00;26.75;;;;;9.49;82.80;101690.28;4900259;29;11624;-75
2021/04/17 04:58:30;;;;;;;;;21.25;21.25;;;;;9.91;83.28;101708.69;4898470;29;11628;-74
2021/04/17 05:01:12;;;;;;;;;21.00;21.00;;;;;10.04;81.62;101704.31;4900082;29;11650;-75
2021/04/17 05:04:07;;;;;;;;;22.50;22.50;;;;;10.13;80.27;101702.53;4901616;29;11772;-74
2021/04/17 05:07:03;;;;;;;;;25.75;25.75;;;;;10.22;79.13;101714.56;4896306;29;11779;-75
2021/04/17 05:09:58;;;;;;;;;15.75;14.50;;;;;9.99;77.78;101712.72;4893133;29;11752;-75
2021/04/17 05:12:54;;;;;;;;;22.75;22.75;;;;;9.88;81.10;101716.75;4898873;29;11620;-72
2021/04/17 05:15:50;;;;;;;;;24.00;24.00;;;;;10.25;80.98;101710.34;4897157;29;11696;-75
2021/04/17 05:18:45;;;;;;;;;17.50;17.50;;;;;10.32;80.06;101709.97;4885532;29;11658;-73
2021/04/17 05:21:43;;;;;;;;;24.75;24.75;;;;;10.35;81.12;101706.56;4902427;29;11612;-73
2021/04/17 05:24:15;;;;;;;;;28.25;27.50;;;;;9.94;80.50;101716.38;4880843;29;11718;-73
2021/04/17 05:26:56;;;;;;;;;23.00;23.00;;;;;9.90;78.62;101709.00;4880808;29;11646;-74
2021/04/17 05:29:52;;;;;;;;;26.50;26.50;;;;;10.33;81.56;101717.13;4880424;29;12385;-74
2021/04/17 05:32:34;;;;;;;;;25.50;25.00;;;;;10.24;79.14;101723.38;4897281;29;11654;-74
2021/04/17 05:35:23;;;;;;;;;25.25;25.00;;;;;10.45;79.60;101715.53;4895086;29;11691;-74
2021/04/17 05:38:19;;;;;;;;;19.25;18.75;;;;;10.43;77.72;101719.72;4887421;29;11740;-74
2021/04/17 05:41:14;;;;;;;;;24.25;24.25;;;;;10.60;78.49;101722.72;4897266;29;11593;-73
2021/04/17 05:44:11;;;;;;;;;25.50;25.50;;;;;10.53;77.45;101723.13;4898435;29;11749;-74
2021/04/17 05:47:06;;;;;;;;;24.50;23.50;;;;;10.34;75.76;101725.13;4892543;29;11696;-75
2021/04/17 05:50:03;;;;;;;;;21.50;20.50;;;;;10.20;75.69;101738.06;4881052;29;11628;-73
2021/04/17 05:52:58;;;;;;;;;30.75;30.75;;;;;10.00;76.05;101731.75;4882570;29;11584;-74
2021/04/17 05:55:54;;;;;;;;;28.50;27.50;;;;;10.02;75.46;101734.22;4898183;29;11670;-74
2021/04/17 05:58:22;;;;;;;;;24.00;24.00;;;;;10.05;76.14;101738.34;4891053;29;11685;-73
2021/04/17 06:01:17;;;;;;;;;26.75;26.75;;;;;9.98;76.18;101738.72;4892602;29;11719;-73
2021/04/17 06:04:14;;;;;;;;;31.75;27.25;;;;;9.82;77.32;101742.84;4881218;29;11650;-74
2021/04/17 06:07:09;;;;;;;;;23.50;23.50;;;;;9.91;76.94;101739.09;4895566;29;11633;-74
2021/04/17 06:10:00;;;;;;;;;27.50;26.75;;;;;9.82;77.53;101742.84;4911350;29;11715;-80
2021/04/17 06:12:55;;;;;;;;;22.00;22.00;;;;;9.86;77.00;101741.13;4903424;29;11713;-80
2021/04/17 06:15:24;;;;;;;;;29.25;29.25;;;;;9.91;76.73;101741.03;4897775;29;11661;-78
2021/04/17 06:18:20;;;;;;;;;23.50;23.50;;;;;10.04;76.50;101748.53;4896383;29;11611;-78
2021/04/17 06:21:15;;;;;;;;;22.00;22.00;;;;;10.08;76.41;101757.06;4880183;29;11750;-78
2021/04/17 06:23:48;;;;;;;;;19.75;19.75;;;;;10.03;75.44;101760.72;4880256;29;11622;-78
2021/04/17 06:26:43;;;;;;;;;26.50;24.00;;;;;10.10;75.72;101758.41;4889499;29;11691;-79
2021/04/17 06:29:39;;;;;;;;;23.25;23.25;;;;;10.23;75.97;101762.38;4890849;29;11608;-79
2021/04/17 06:32:07;;;;;;;;;27.50;24.50;;;;;10.29;75.78;101763.94;4906797;29;11611;-78
2021/04/17 06:35:03;;;;;;;;;24.75;24.50;;;;;10.17;74.99;101764.38;4914890;29;12490;-79
2021/04/17 06:37:45;;;;;;;;;24.00;24.00;;;;;10.41;74.80;101768.97;4891367;29;11651;-79
2021/04/17 06:40:17;;;;;;;;;26.75;26.75;;;;;10.47;74.33;101770.53;4891995;29;11654;-79
2021/04/17 06:43:15;;;;;;;;;28.00;26.75;;;;;10.66;73.67;101763.00;4894155;29;11688;-79
2021/04/17 06:46:13;;;;;;;;;29.00;28.75;;;;;10.70;72.70;101783.38;4895806;29;11614;-79
2021/04/17 06:49:09;;;;;;;;;25.25;25.25;;;;;10.67;72.83;101777.66;4896717;29;11611;-79
2021/04/17 06:52:08;;;;;;;;;29.00;29.00;;;;;10.85;72.86;101780.31;4897624;29;11688;-79
2021/04/17 06:55:06;;;;;;;;;27.25;27.25;;;;;10.95;73.06;101784.84;4897931;29;11817;-79
2021/04/17 06:58:03;;;;;;;;;31.00;31.00;;;;;11.04;71.58;101790.47;4896066;29;11652;-80
2021/04/17 07:00:59;;;;;;;;;27.00;27.00;;;;;10.80;72.45;101782.34;4879004;29;12449;-78
2021/04/17 07:03:56;;;;;;;;;27.00;26.75;;;;;11.01;70.92;101778.06;4877611;29;12579;-79
2021/04/17 07:06:53;;;;;;;;;28.25;28.00;;;;;11.27;71.12;101783.06;4879295;29;11384;-79
2021/04/17 07:09:22;;;;;;;;;35.25;33.50;;;;;11.57;70.20;101785.19;4878215;29;11633;-79
2021/04/17 07:12:18;;;;;;;;;29.75;29.75;;;;;11.74;69.10;101784.56;4877662;29;11421;-78
2021/04/17 07:15:15;;;;;;;;;34.00;33.00;;;;;11.91;66.23;101795.00;4879026;29;11219;-79
2021/04/17 07:18:25;;;;;;;;;33.50;33.50;;;;;11.99;65.96;101787.91;4895053;29;11330;-79
2021/04/17 07:21:13;;;;;;;;;34.25;33.25;;;;;12.14;66.46;101781.97;4893566;29;12092;-78
2021/04/17 07:23:45;;;;;;;;;26.75;26.75;;;;;12.28;66.19;101781.91;4897891;29;11059;-78
2021/04/17 07:26:41;;;;;;;;;25.75;25.75;;;;;12.46;64.31;101789.22;4897279;29;11032;-79
2021/04/17 07:29:13;;;;;;;;;25.25;24.25;;;;;12.54;63.65;101785.66;4896444;29;11721;-79
2021/04/17 07:32:18;;;;;;;;;26.25;24.75;;;;;11.97;64.17;101793.75;4897687;29;10765;-78
2021/04/17 07:35:07;;;;;;;;;17.75;17.75;;;;;11.76;63.25;101787.84;4896295;29;11014;-79
2021/04/17 07:38:11;;;;;;;;;25.75;25.75;;;;;12.10;63.28;101786.50;4899688;29;10892;-79
2021/04/17 07:41:11;;;;;;;;;24.50;23.75;;;;;12.20;62.11;101777.94;4878271;29;10992;-79
2021/04/17 07:43:45;;;;;;;;;31.00;31.00;;;;;12.36;62.02;101786.72;4877431;29;11554;-79
2021/04/17 07:46:13;;;;;;;;;25.75;25.75;;;;;12.35;60.66;101794.22;4877512;29;10844;-79
2021/04/17 07:49:19;;;;;;;;;22.25;21.50;;;;;12.39;60.48;101792.44;4878379;29;10980;-80
2021/04/17 07:52:16;;;;;;;;;24.50;24.50;;;;;12.59;60.00;101790.28;4879275;29;10748;-79
2021/04/17 07:55:14;;;;;;;;;25.25;25.25;;;;;12.67;60.73;101786.72;4893509;29;11061;-79
2021/04/17 07:58:01;;;;;;;;;23.75;23.75;;;;;12.82;60.52;101793.81;4887404;29;10969;-80
2021/04/17 08:00:57;;;;;;;;;24.00;22.00;;;;;12.38;60.07;101788.00;4896547;29;10899;-77
2021/04/17 08:03:56;;;;;;;;;23.00;23.00;;;;;12.50;59.32;101791.03;4880529;29;10802;-77
2021/04/17 08:06:53;;;;;;;;;22.25;22.25;;;;;12.74;58.48;101784.31;4878447;29;10833;-77
2021/04/17 08:09:50;;;;;;;;;22.50;22.50;;;;;12.87;58.18;101791.72;4878530;29;10575;-78
2021/04/17 08:12:47;;;;;;;;;36.00;31.25;;;;;13.06;57.37;101786.75;4878333;29;10607;-78
2021/04/17 08:15:43;;;;;;;;;21.75;21.75;;;;;13.33;54.99;101785.69;4882458;29;10784;-77
2021/04/17 08:18:10;;;;;;;;;19.00;19.00;;;;;13.35;54.58;101779.84;4897106;29;10727;-77
2021/04/17 08:20:38;;;;;;;;;21.75;21.75;;;;;13.43;54.80;101784.59;4898802;29;10604;-77
2021/04/17 08:23:37;;;;;;;;;22.25;22.00;;;;;13.75;55.49;101779.72;4910372;29;10458;-77
2021/04/17 08:26:33;;;;;;;;;18.00;18.00;;;;;13.61;52.74;101786.25;4900366;29;10404;-76
2021/04/17 08:29:56;;;;;;;;;19.25;19.25;;;;;13.19;54.06;101779.44;4900558;29;10092;-78
2021/04/17 08:32:53;;;;;;;;;17.25;17.25;;;;;13.80;52.69;101782.34;4883849;29;10069;-79
2021/04/17 08:35:48;;;;;;;;;17.50;17.50;;;;;13.91;53.51;101767.78;4888770;29;10336;-78
2021/04/17 08:38:44;;;;;;;;;15.25;15.25;;;;;14.18;52.79;101769.44;4900503;29;10137;-78
2021/04/17 08:41:42;;;;;;;;;15.50;14.25;;;;;13.80;51.37;101774.84;4900361;29;10090;-78
2021/04/17 08:44:43;;;;;;;;;13.00;13.00;;;;;14.08;52.36;101774.50;4900095;29;10654;-78
2021/04/17 08:47:44;;;;;;;;;14.75;14.75;;;;;14.09;50.53;101770.56;4899832;29;9908;-78
2021/04/17 08:50:43;;;;;;;;;16.25;16.25;;;;;14.43;51.85;101762.16;4900639;29;10034;-79
2021/04/17 08:53:25;;;;;;;;;10.00;10.00;;;;;14.33;51.73;101770.03;4890065;29;9659;-79
2021/04/17 08:56:53;;;;;;;;;15.00;15.00;;;;;14.31;52.10;101769.56;4881715;29;9558;-78
2021/04/17 08:59:57;;;;;;;;;6.00;6.00;;;;;14.07;52.60;101765.31;4896127;29;9674;-78
2021/04/17 09:02:52;;;;;;;;;12.75;12.75;;;;;14.26;50.39;101764.16;4900211;29;9618;-78
2021/04/17 09:05:48;;;;;;;;;14.00;14.00;;;;;14.25;51.06;101765.31;4899883;29;9629;-78
2021/04/17 09:09:16;;;;;;;;;12.25;12.25;;;;;14.44;51.89;101769.38;4898584;29;9585;-78
2021/04/17 09:12:11;;;;;;;;;13.75;13.75;;;;;14.76;48.76;101769.97;4899813;29;9566;-78
2021/04/17 09:15:07;;;;;;;;;13.00;13.00;;;;;15.06;49.58;101770.00;4899436;29;9590;-75
2021/04/17 09:17:41;;;;;;;;;12.75;12.75;;;;;14.74;50.69;101764.72;4898016;29;9440;-75
2021/04/17 09:20:37;;;;;;;;;16.50;16.50;;;;;15.22;49.77;101759.91;4898490;29;9668;-75
2021/04/17 09:23:47;;;;;;;;;13.25;13.25;;;;;15.35;51.86;101750.50;4890050;29;9595;-75
2021/04/17 09:26:42;;;;;;;;;13.75;13.75;;;;;15.28;50.75;101758.56;4880299;29;9597;-75
2021/04/17 09:29:38;;;;;;;;;15.00;15.00;;;;;15.90;47.64;101757.00;4883633;29;9599;-75
2021/04/17 09:32:36;;;;;;;;;16.33;16.33;;;;;16.13;46.96;101755.50;4883725;29;9360;-75
2021/04/17 09:35:37;;;;;;;;;16.00;16.00;;;;;15.89;47.15;101749.81;4887546;29;9437;-76
2021/04/17 09:38:32;;;;;;;;;60.75;50.75;;;;;15.76;49.71;101758.09;4882815;29;9197;-75
2021/04/17 09:41:50;;;;;;;;;17.33;17.33;;;;;16.34;46.02;101750.69;4895420;29;11379;-77
2021/04/17 09:44:19;;;;;;;;;19.33;19.33;;;;;16.49;47.79;101765.16;4880549;29;9999;-76
2021/04/17 09:47:16;;;;;;;;;12.00;12.00;;;;;16.57;45.76;101755.88;4878596;29;9249;-76
2021/04/17 09:49:47;;;;;;;;;15.00;15.00;;;;;16.42;45.07;101765.72;4880107;29;9061;-76
2021/04/17 09:52:19;;;;;;;;;16.00;16.00;;;;;16.60;46.60;101749.56;4879007;29;8951;-76
2021/04/17 09:55:15;;;;;;;;;18.33;18.33;;;;;16.85;44.76;101754.06;4928828;23;9003;-75
2021/04/17 10:00:00;;;;;;;;;24.67;24.67;;;;;17.04;48.44;101749.88;4606925;27;16716327;-75
2021/04/17 10:02:55;;;;;;;;;19.50;19.25;;;;;17.30;45.35;101753.13;5179956;27;8841;-76
2021/04/17 10:05:51;;;;;;;;;18.00;18.00;;;;;17.23;45.53;101755.69;5171347;27;8864;-76
2021/04/17 10:08:46;;;;;;;;;16.33;16.33;;;;;15.77;48.68;101745.78;5170389;27;8942;-76
2021/04/17 10:11:44;;;;;;;;;69.00;56.50;;;;;16.76;49.56;101747.75;5176456;27;8931;-75
2021/04/17 10:14:39;;;;;;;;;49.50;41.75;;;;;17.40;49.81;101729.47;5172710;27;11570;-76
2021/04/17 10:17:11;;;;;;;;;25.33;25.33;;;;;17.77;46.21;101733.00;5172173;27;9933;-76
2021/04/17 10:20:07;;;;;;;;;16.75;16.75;;;;;17.61;46.50;101743.28;5171334;27;9077;-75
2021/04/17 10:23:03;;;;;;;;;59.00;48.25;;;;;17.91;47.68;101739.03;5192066;27;8866;-75
2021/04/17 10:26:04;;;;;;;;;41.75;36.25;;;;;17.63;46.06;101746.53;5191653;27;11265;-75
2021/04/17 10:29:01;;;;;;;;;28.67;28.67;;;;;17.30;46.43;101747.53;5172299;27;10518;-75
2021/04/17 10:31:42;;;;;;;;;13.75;13.75;;;;;17.23;47.19;101741.72;5172225;27;9249;-77
2021/04/17 10:34:39;;;;;;;;;13.50;13.50;;;;;17.16;45.21;101750.69;5156816;27;8848;-76
2021/04/17 10:37:45;;;;;;;;;13.25;13.25;;;;;17.34;46.10;101736.47;5176987;27;8815;-78
2021/04/17 10:40:45;;;;;;;;;7.50;7.50;;;;;17.54;45.22;101745.88;5191876;27;8865;-74
2021/04/17 10:43:40;;;;;;;;;16.00;16.00;;;;;17.98;44.27;101736.44;5182048;27;8963;-75
2021/04/17 10:46:44;;;;;;;;;17.25;17.25;;;;;17.97;39.01;101731.19;5172800;27;8880;-75
2021/04/17 10:49:40;;;;;;;;;4.25;4.25;;;;;18.02;40.21;101737.38;5190733;27;8831;-75
2021/04/17 10:52:36;;;;;;;;;7.75;7.75;;;;;18.23;40.85;101737.13;5191359;27;8826;-76
2021/04/17 10:55:04;;;;;;;;;6.00;6.00;;;;;18.01;41.49;101741.31;5193058;27;8810;-76
2021/04/17 10:58:01;;;;;;;;;20.25;20.25;;;;;18.08;40.48;101739.91;5157095;27;8843;-75
2021/04/17 11:01:00;;;;;;;;;50.50;43.25;;;;;18.60;41.21;101742.53;5162937;27;8841;-76
2021/04/17 11:03:32;;;;;;;;;18.25;18.25;;;;;18.64;39.75;101739.84;5164268;27;10542;-77
2021/04/17 11:06:35;;;;;;;;;8.00;8.00;;;;;19.16;41.36;101743.16;5180454;27;8823;-77
2021/04/17 11:09:31;;;;;;;;;4.25;4.25;;;;;19.31;40.33;101740.69;5173571;27;8896;-77
2021/04/17 11:12:32;;;;;;;;;9.25;9.25;;;;;19.60;39.25;101734.59;5165197;27;8833;-77
2021/04/17 11:15:29;;;;;;;;;43.33;38.00;;;;;19.63;37.93;101741.44;5152851;27;8827;-78
2021/04/17 11:18:38;;;;;;;;;65.25;53.25;;;;;20.04;39.68;101731.50;5149242;27;9083;-76
2021/04/17 11:21:35;;;;;;;;;16.75;15.50;;;;;19.71;37.41;101749.69;5166003;27;11308;-78
2021/04/17 11:24:11;;;;;;;;;63.50;52.00;;;;;19.68;38.80;101743.97;5165081;27;8829;-78
2021/04/17 11:27:07;;;;;;;;;5.00;5.00;;;;;19.10;39.21;101744.66;5165710;27;9987;-77
2021/04/17 11:30:06;;;;;;;;;4.00;4.00;;;;;18.69;38.59;101743.19;5150385;27;8850;-77
2021/04/17 11:33:02;;;;;;;;;6.25;6.25;;;;;18.66;39.52;101734.72;5150393;27;8819;-77
2021/04/17 11:35:57;;;;;;;;;6.25;6.25;;;;;19.13;37.63;101740.28;5166143;27;8898;-77
2021/04/17 11:38:54;;;;;;;;;5.00;5.00;;;;;18.92;37.37;101734.97;5152313;27;8838;-78
2021/04/17 11:41:49;;;;;;;;;9.50;7.75;;;;;19.53;40.66;101728.78;5163872;27;8805;-77
2021/04/17 11:44:46;;;;;;;;;5.25;5.00;;;;;19.26;37.65;101726.97;5157544;27;8838;-74
2021/04/17 11:47:14;;;;;;;;;2.00;2.00;;;;;18.48;37.32;101723.81;5136159;27;8948;-75
2021/04/17 11:50:10;;;;;;;;;10.00;8.50;;;;;18.41;38.14;101731.22;5159310;27;8846;-76
2021/04/17 11:53:21;;;;;;;;;4.50;3.50;;;;;18.08;39.05;101726.72;5164606;27;8841;-76
2021/04/17 11:55:52;;;;;;;;;3.25;3.25;;;;;18.56;39.32;101727.63;5162807;27;8894;-75
2021/04/17 11:58:23;;;;;;;;;4.00;4.00;;;;;18.88;39.64;101725.66;5156558;27;8829;-75
2021/04/17 12:00:50;;;;;;;;;2.75;2.75;;;;;18.55;38.36;101717.56;5172672;27;8875;-76
2021/04/17 12:03:22;;;;;;;;;4.00;4.00;;;;;18.17;37.88;101729.34;5154524;27;8880;-76
2021/04/17 12:06:17;;;;;;;;;1.25;1.25;;;;;18.85;38.11;101718.78;5147475;27;8947;-77
2021/04/17 12:09:14;;;;;;;;;5.00;4.00;;;;;19.84;38.65;101716.66;5165062;27;8825;-76
2021/04/17 12:12:12;;;;;;;;;3.50;3.50;;;;;19.81;36.39;101722.22;5164601;27;8950;-75
2021/04/17 12:15:09;;;;;;;;;3.75;3.75;;;;;19.40;37.09;101725.31;5152401;27;8806;-75
2021/04/17 12:18:06;;;;;;;;;4.00;4.00;;;;;19.11;37.70;101723.03;5150834;27;8882;-75
2021/04/17 12:20:48;;;;;;;;;4.00;4.00;;;;;18.48;37.61;101720.19;5149540;27;8966;-77
2021/04/17 12:23:17;;;;;;;;;4.25;4.25;;;;;18.35;37.90;101719.47;5166040;27;8838;-77
2021/04/17 12:26:14;;;;;;;;;4.25;4.25;;;;;17.99;36.82;101714.84;5163461;27;8907;-78
2021/04/17 12:28:42;;;;;;;;;5.00;5.00;;;;;18.22;37.09;101717.91;5146409;27;8985;-78
2021/04/17 12:31:38;;;;;;;;;4.00;4.00;;;;;18.74;36.23;101708.50;5162837;27;8859;-77
2021/04/17 12:34:15;;;;;;;;;4.50;4.50;;;;;17.99;36.93;101710.06;5149349;27;8863;-78
2021/04/17 12:37:11;;;;;;;;;2.00;2.00;;;;;18.15;39.25;101715.72;5163718;27;8830;-77
2021/04/17 12:40:11;;;;;;;;;8.75;8.75;;;;;18.00;39.56;101720.09;5163366;27;8817;-78
2021/04/17 12:43:09;;;;;;;;;4.75;4.75;;;;;18.01;39.99;101721.72;5152408;27;8848;-78
2021/04/17 12:45:47;;;;;;;;;2.00;2.00;;;;;17.91;39.76;101716.63;5145190;27;8840;-77
2021/04/17 12:48:43;;;;;;;;;3.00;3.00;;;;;17.75;40.63;101721.38;5162110;27;8832;-76
2021/04/17 12:51:39;;;;;;;;;4.75;4.75;;;;;17.71;37.84;101723.22;5165081;27;8849;-75
2021/04/17 12:54:50;;;;;;;;;53.00;45.25;;;;;17.70;39.48;101715.97;5153321;27;9585;-77
2021/04/17 12:57:32;;;;;;;;;5.75;5.75;;;;;17.57;40.03;101714.41;5148767;27;9825;-77
2021/04/17 13:00:30;;;;;;;;;10.00;10.00;;;;;17.74;40.74;101716.94;5150792;27;9547;-77
2021/04/17 13:03:26;;;;;;;;;6.50;6.50;;;;;17.80;39.78;101720.31;5164286;27;8904;-77
2021/04/17 13:06:22;;;;;;;;;5.00;5.00;;;;;17.45;38.23;101718.84;5161673;27;8845;-78
2021/04/17 13:09:18;;;;;;;;;4.00;4.00;;;;;17.55;38.64;101716.72;5151245;27;8825;-78
2021/04/17 13:11:45;;;;;;;;;3.00;3.00;;;;;17.51;38.25;101714.66;5165275;27;8835;-77
2021/04/17 13:14:14;;;;;;;;;2.50;2.50;;;;;17.46;38.60;101714.88;5164883;27;8833;-78